Time;durP1;ratioP1;P1;durP2;ratioP2;P2;SDS_P1;SDS_P2;PMS_P1;PMS_P2;Temp;Humidity;BMP_temperature;BMP_pressure;BME280_temperature;BME280_humidity;BME280_pressure;Samples;Min_cycle;Max_cycle;Signal;HPM_P1;HPM_P2
2023/10/22 00:02:11;;;;;;;4.37;2.00;;;12.50;99.90;12.60;99509.00;;;;4922482;28;82842;-67
2023/10/22 00:04:40;;;;;;;5.17;2.57;;;12.60;99.90;12.60;99508.00;;;;4935608;28;84406;-67
2023/10/22 00:07:07;;;;;;;4.23;2.80;;;12.60;99.90;12.60;99512.00;;;;4938453;28;83169;-67
2023/10/22 00:09:33;;;;;;;3.30;2.70;;;12.60;99.90;12.60;99525.00;;;;4918115;28;82527;-68
2023/10/22 00:11:59;;;;;;;3.77;2.07;;;12.60;99.90;12.60;99522.00;;;;4935155;28;90049;-67
2023/10/22 00:14:25;;;;;;;4.03;2.43;;;12.50;99.90;12.60;99522.00;;;;4937507;28;106498;-67
2023/10/22 00:16:50;;;;;;;2.23;2.03;;;12.60;99.90;12.60;99520.00;;;;4939494;28;89554;-67
2023/10/22 00:19:16;;;;;;;2.70;2.27;;;12.90;99.90;12.50;99518.00;;;;4934107;28;110777;-67
2023/10/22 00:21:42;;;;;;;2.50;2.13;;;12.50;99.90;12.50;99528.00;;;;4936704;28;95873;-68
2023/10/22 00:24:08;;;;;;;2.83;1.80;;;12.80;99.90;12.50;99524.00;;;;4941879;28;82859;-67
2023/10/22 00:26:34;;;;;;;3.87;2.43;;;12.50;99.90;12.50;99526.00;;;;4921854;28;82721;-67
2023/10/22 00:29:00;;;;;;;2.27;2.07;;;12.50;99.90;12.50;99527.00;;;;4935207;28;109893;-67
2023/10/22 00:31:26;;;;;;;4.37;2.37;;;12.50;99.90;12.50;99534.00;;;;4920420;28;86217;-66
2023/10/22 00:33:52;;;;;;;2.23;1.70;;;12.50;99.90;12.40;99524.00;;;;4937636;28;112781;-66
2023/10/22 00:36:18;;;;;;;3.00;1.97;;;12.40;99.90;12.40;99533.00;;;;4937594;28;113472;-67
2023/10/22 00:38:43;;;;;;;2.30;1.50;;;12.40;99.90;12.30;99536.00;;;;4940926;28;82742;-66
2023/10/22 00:41:09;;;;;;;1.80;1.37;;;12.40;99.90;12.30;99541.00;;;;4931770;28;108069;-66
2023/10/22 00:43:35;;;;;;;3.87;2.67;;;12.30;99.90;12.30;99542.00;;;;4942077;28;111435;-66
2023/10/22 00:46:02;;;;;;;2.33;1.50;;;12.30;99.90;12.30;99540.00;;;;4936063;28;84052;-66
2023/10/22 00:48:28;;;;;;;3.10;2.20;;;12.30;99.90;12.30;99542.00;;;;4936320;28;82778;-67
2023/10/22 00:50:54;;;;;;;1.90;1.73;;;12.30;99.90;12.20;99535.00;;;;4919246;28;108830;-66
2023/10/22 00:53:20;;;;;;;3.33;2.10;;;12.30;99.90;12.20;99529.00;;;;4932879;28;114103;-66
2023/10/22 00:55:47;;;;;;;2.20;1.63;;;12.20;99.90;12.20;99540.00;;;;4938583;28;84854;-66
2023/10/22 00:58:16;;;;;;;2.00;1.77;;;12.20;99.90;12.20;99531.00;;;;4917499;28;83155;-66
2023/10/22 01:00:43;;;;;;;2.40;2.00;;;12.30;99.90;12.30;99532.00;;;;4937411;28;82762;-67
2023/10/22 01:03:08;;;;;;;1.50;1.40;;;12.30;99.90;12.30;99540.00;;;;4931602;28;103698;-66
2023/10/22 01:05:37;;;;;;;1.67;1.40;;;12.30;99.90;12.30;99544.00;;;;4938027;28;111774;-67
2023/10/22 01:08:05;;;;;;;2.20;1.63;;;12.30;99.90;12.30;99548.00;;;;4933204;28;82717;-66
2023/10/22 01:10:32;;;;;;;1.70;1.33;;;12.30;99.90;12.30;99554.00;;;;4935744;28;81933;-66
2023/10/22 01:12:59;;;;;;;4.90;2.10;;;12.30;99.90;12.30;99548.00;;;;4935081;28;83606;-65
2023/10/22 01:15:34;;;;;;;2.30;1.50;;;12.30;99.90;12.30;99554.00;;;;4934877;28;83102;-67
2023/10/22 01:18:00;;;;;;;1.47;1.33;;;12.30;99.90;12.30;99556.00;;;;4918179;28;83812;-65
2023/10/22 01:20:25;;;;;;;1.70;1.60;;;12.40;99.90;12.30;99550.00;;;;4918772;28;107578;-65
2023/10/22 01:22:51;;;;;;;3.37;1.80;;;12.30;99.90;12.30;99556.00;;;;4916338;28;112944;-66
2023/10/22 01:25:17;;;;;;;1.70;1.60;;;12.30;99.90;12.30;99551.00;;;;4916989;28;111578;-67
2023/10/22 01:27:43;;;;;;;4.17;2.30;;;12.30;99.90;12.30;99553.00;;;;4916973;28;109243;-67
2023/10/22 01:30:09;;;;;;;2.47;2.10;;;12.30;99.90;12.30;99543.00;;;;4920136;28;82904;-67
2023/10/22 01:32:35;;;;;;;3.20;2.53;;;12.30;99.90;12.30;99552.00;;;;4915570;28;83771;-68
2023/10/22 01:35:01;;;;;;;2.30;2.00;;;12.30;99.90;12.30;99553.00;;;;4919650;28;111411;-67
2023/10/22 01:37:27;;;;;;;3.27;1.80;;;12.30;99.90;12.30;99546.00;;;;4913751;28;104177;-67
2023/10/22 01:39:54;;;;;;;2.93;2.40;;;12.30;99.90;12.30;99548.00;;;;4917393;28;104911;-67
2023/10/22 01:42:20;;;;;;;3.07;2.10;;;12.00;99.90;12.30;99548.00;;;;4910943;28;83470;-68
2023/10/22 01:44:45;;;;;;;3.77;2.13;;;12.30;99.90;12.30;99551.00;;;;4886898;28;83846;-67
2023/10/22 01:47:11;;;;;;;3.40;2.60;;;12.30;99.90;12.30;99562.00;;;;4900287;28;98893;-67
2023/10/22 01:49:38;;;;;;;3.03;2.43;;;12.30;99.90;12.40;99557.00;;;;4898660;28;108883;-68
2023/10/22 01:52:06;;;;;;;2.93;2.53;;;12.40;99.90;12.40;99563.00;;;;4918136;28;103825;-68
2023/10/22 01:54:32;;;;;;;5.17;2.43;;;12.40;99.90;12.40;99563.00;;;;4920314;28;83867;-69
2023/10/22 01:56:57;;;;;;;1.70;1.60;;;12.40;99.90;12.50;99575.00;;;;4916892;28;111014;-69
2023/10/22 01:59:23;;;;;;;3.70;2.50;;;12.40;99.90;12.50;99581.00;;;;4913265;28;107550;-69
2023/10/22 02:01:49;;;;;;;2.80;2.50;;;12.50;99.90;12.50;99584.00;;;;4915645;28;111603;-69
2023/10/22 02:04:14;;;;;;;2.80;2.23;;;12.50;99.90;12.50;99583.00;;;;4896522;28;113696;-69
2023/10/22 02:06:40;;;;;;;3.73;1.93;;;12.50;99.90;12.60;99591.00;;;;4917164;28;110508;-67
2023/10/22 02:09:06;;;;;;;3.00;2.53;;;12.50;99.90;12.60;99581.00;;;;4917335;28;108537;-68
2023/10/22 02:11:33;;;;;;;2.60;2.30;;;12.50;99.90;12.60;99579.00;;;;4918031;28;83841;-69
2023/10/22 02:13:59;;;;;;;2.43;2.20;;;12.40;99.90;12.60;99575.00;;;;4915067;28;82689;-69
2023/10/22 02:16:25;;;;;;;3.33;3.03;;;11.50;99.90;12.60;99584.00;;;;4901833;28;114249;-66
2023/10/22 02:18:50;;;;;;;2.43;2.17;;;12.60;99.90;12.60;99587.00;;;;4919738;28;83020;-67
2023/10/22 02:21:16;;;;;;;2.63;2.00;;;12.70;99.90;12.60;99588.00;;;;4913638;28;111827;-67
2023/10/22 02:23:45;;;;;;;3.17;2.87;;;12.60;99.90;12.60;99594.00;;;;4888450;28;82010;-68
2023/10/22 02:26:10;;;;;;;4.00;2.40;;;12.60;99.90;12.70;99582.00;;;;4917268;28;110659;-68
2023/10/22 02:28:36;;;;;;;2.23;1.90;;;12.60;99.90;12.70;99592.00;;;;4923204;28;109898;-69
2023/10/22 02:31:04;;;;;;;3.67;2.57;;;12.60;99.90;12.70;99587.00;;;;4885105;28;91833;-68
2023/10/22 02:33:29;;;;;;;2.80;2.40;;;12.70;99.90;12.70;99587.00;;;;4919517;28;83775;-69
2023/10/22 02:35:55;;;;;;;4.00;2.17;;;12.70;99.90;12.70;99597.00;;;;4921822;28;109559;-68
2023/10/22 02:38:21;;;;;;;3.47;3.07;;;12.70;99.90;12.70;99606.00;;;;4919532;28;82744;-68
2023/10/22 02:40:50;;;;;;;2.40;2.20;;;12.70;99.90;12.70;99603.00;;;;4917350;28;86658;-68
2023/10/22 02:43:21;;;;;;;4.03;2.80;;;12.70;99.90;12.70;99614.00;;;;4917836;28;82886;-69
2023/10/22 02:45:52;;;;;;;5.30;2.70;;;12.70;99.90;12.70;99608.00;;;;4921982;28;110111;-69
2023/10/22 02:48:18;;;;;;;5.77;2.83;;;12.70;99.90;12.70;99607.00;;;;4920588;28;82949;-69
2023/10/22 02:50:43;;;;;;;3.97;2.30;;;12.70;99.90;12.70;99603.00;;;;4899897;28;112646;-68
2023/10/22 02:53:09;;;;;;;3.80;2.43;;;12.60;99.90;12.60;99594.00;;;;4920508;28;83092;-69
2023/10/22 02:55:44;;;;;;;3.27;2.33;;;12.70;99.90;12.60;99596.00;;;;4897790;28;108554;-68
2023/10/22 02:58:10;;;;;;;3.37;3.07;;;12.60;99.90;12.60;99614.00;;;;4917787;28;108295;-68
2023/10/22 03:00:36;;;;;;;2.50;2.23;;;12.60;99.90;12.60;99614.00;;;;4920103;28;82790;-69
2023/10/22 03:03:05;;;;;;;2.37;2.13;;;12.60;99.90;12.60;99601.00;;;;4921736;28;82858;-69
2023/10/22 03:05:36;;;;;;;3.00;2.10;;;12.60;99.90;12.60;99606.00;;;;4919775;28;82439;-70
2023/10/22 03:08:03;;;;;;;5.40;2.13;;;12.60;99.90;12.60;99600.00;;;;4890285;28;82865;-69
2023/10/22 03:10:29;;;;;;;4.60;2.17;;;12.60;99.90;12.60;99598.00;;;;4920936;28;86107;-70
2023/10/22 03:12:56;;;;;;;3.40;2.83;;;12.60;99.90;12.60;99618.00;;;;4916461;28;113559;-70
2023/10/22 03:15:23;;;;;;;2.80;2.53;;;12.60;99.90;12.60;99615.00;;;;4908323;28;83167;-69
2023/10/22 03:17:48;;;;;;;3.03;2.30;;;12.60;99.90;12.60;99620.00;;;;4929289;28;95674;-69
2023/10/22 03:20:16;;;;;;;3.00;2.60;;;12.60;99.90;12.50;99623.00;;;;4936868;28;84475;-69
2023/10/22 03:22:42;;;;;;;2.87;2.10;;;12.50;99.90;12.50;99619.00;;;;4937467;28;84520;-69
2023/10/22 03:25:12;;;;;;;3.60;2.47;;;12.50;99.90;12.50;99626.00;;;;4940369;28;82569;-70
2023/10/22 03:27:38;;;;;;;3.43;2.37;;;12.50;99.90;12.50;99608.00;;;;4936884;28;83083;-70
2023/10/22 03:30:04;;;;;;;2.70;2.50;;;12.50;99.90;12.50;99615.00;;;;4937804;28;102115;-70
2023/10/22 03:32:30;;;;;;;4.97;2.67;;;12.50;99.90;12.50;99610.00;;;;4939344;28;103726;-70
2023/10/22 03:34:56;;;;;;;3.27;2.00;;;12.50;99.90;12.50;99619.00;;;;4927249;28;83084;-69
2023/10/22 03:37:22;;;;;;;2.90;2.23;;;12.50;99.90;12.50;99628.00;;;;4921466;28;109306;-70
2023/10/22 03:39:47;;;;;;;2.67;2.40;;;12.50;99.90;12.50;99629.00;;;;4929766;28;111059;-69
2023/10/22 03:42:13;;;;;;;2.73;2.53;;;12.50;99.90;12.50;99621.00;;;;4917547;28;111579;-70
2023/10/22 03:44:38;;;;;;;3.13;2.60;;;12.50;99.90;12.50;99629.00;;;;4938029;28;108552;-69
2023/10/22 03:47:04;;;;;;;2.07;1.87;;;12.50;99.90;12.50;99629.00;;;;4939430;28;108717;-70
2023/10/22 03:49:30;;;;;;;2.97;2.20;;;12.40;99.90;12.50;99625.00;;;;4937753;28;99650;-68
2023/10/22 03:51:55;;;;;;;3.83;2.90;;;12.50;99.90;12.40;99626.00;;;;4937795;28;112021;-68
2023/10/22 03:54:21;;;;;;;2.57;2.33;;;12.40;99.90;12.40;99623.00;;;;4941180;28;82720;-67
2023/10/22 03:56:47;;;;;;;5.90;2.80;;;12.50;99.90;12.40;99624.00;;;;4936253;28;85159;-67
2023/10/22 03:59:12;;;;;;;2.10;1.97;;;12.40;99.90;12.40;99617.00;;;;4940695;28;112248;-67
2023/10/22 04:01:38;;;;;;;3.03;2.20;;;12.40;99.90;12.40;99623.00;;;;4936330;28;84764;-67
2023/10/22 04:04:04;;;;;;;3.07;2.63;;;12.40;99.90;12.40;99631.00;;;;4938495;28;100465;-67
2023/10/22 04:06:31;;;;;;;1.93;1.83;;;12.40;99.90;12.40;99625.00;;;;4941329;28;98789;-69
2023/10/22 04:08:57;;;;;;;2.17;1.97;;;12.40;99.90;12.40;99628.00;;;;4938528;28;84734;-67
2023/10/22 04:11:22;;;;;;;2.30;1.93;;;13.10;99.90;12.40;99625.00;;;;4937943;28;113649;-68
2023/10/22 04:13:48;;;;;;;3.33;2.03;;;12.40;99.90;12.40;99629.00;;;;4939249;28;110332;-67
2023/10/22 04:16:16;;;;;;;4.10;2.40;;;12.60;99.90;12.40;99633.00;;;;4935877;28;94824;-67
2023/10/22 04:18:41;;;;;;;2.47;1.97;;;12.40;99.90;12.40;99636.00;;;;4915805;28;84982;-68
2023/10/22 04:21:14;;;;;;;6.33;3.17;;;12.90;99.90;12.40;99641.00;;;;4923829;28;82778;-68
2023/10/22 04:23:40;;;;;;;3.57;2.40;;;12.40;99.90;12.30;99636.00;;;;4916213;28;83281;-68
2023/10/22 04:26:14;;;;;;;2.30;2.00;;;12.40;99.90;12.30;99645.00;;;;4914459;28;82188;-68
2023/10/22 04:28:43;;;;;;;2.10;1.90;;;12.30;99.90;12.30;99647.00;;;;4938015;28;104652;-69
2023/10/22 04:31:09;;;;;;;1.90;1.70;;;12.10;99.90;12.30;99647.00;;;;4913375;28;83009;-68
2023/10/22 04:33:36;;;;;;;1.53;1.43;;;12.30;99.90;12.30;99659.00;;;;4928222;28;109601;-67
2023/10/22 04:36:02;;;;;;;1.60;1.10;;;12.30;99.90;12.30;99658.00;;;;4930922;28;82467;-67
2023/10/22 04:38:30;;;;;;;4.53;2.10;;;12.30;99.90;12.30;99647.00;;;;4908410;28;85164;-67
2023/10/22 04:40:56;;;;;;;1.37;1.27;;;12.30;99.90;12.30;99650.00;;;;4922471;28;84517;-67
2023/10/22 04:43:21;;;;;;;1.87;1.60;;;12.30;99.90;12.30;99657.00;;;;4937690;28;92432;-67
2023/10/22 04:45:48;;;;;;;2.37;2.10;;;12.30;99.90;12.30;99662.00;;;;4939473;28;108257;-68
2023/10/22 04:48:14;;;;;;;2.20;1.73;;;12.30;99.90;12.30;99657.00;;;;4923040;28;84254;-68
2023/10/22 04:50:41;;;;;;;2.00;1.87;;;12.30;99.90;12.30;99654.00;;;;4935354;28;104571;-67
2023/10/22 04:53:07;;;;;;;3.67;1.43;;;12.30;99.90;12.30;99657.00;;;;4922635;28;82953;-67
2023/10/22 04:55:33;;;;;;;1.73;1.53;;;12.30;99.90;12.30;99651.00;;;;4940666;28;82451;-67
2023/10/22 04:58:00;;;;;;;2.10;1.40;;;12.30;99.90;12.20;99644.00;;;;4935582;28;91800;-67
2023/10/22 05:00:26;;;;;;;1.87;1.30;;;12.30;99.90;12.20;99652.00;;;;4939244;28;84200;-67
2023/10/22 05:02:52;;;;;;;2.20;1.50;;;12.30;99.90;12.20;99658.00;;;;4921860;28;82826;-68
2023/10/22 05:05:19;;;;;;;1.57;1.30;;;12.30;99.90;12.20;99647.00;;;;4930157;28;108087;-66
2023/10/22 05:07:45;;;;;;;2.93;1.67;;;12.20;99.90;12.20;99647.00;;;;4917276;28;82447;-65
2023/10/22 05:10:11;;;;;;;1.97;1.77;;;12.20;99.90;12.20;99649.00;;;;4933467;28;113394;-66
2023/10/22 05:12:38;;;;;;;1.33;1.23;;;12.20;99.90;12.20;99654.00;;;;4936713;28;82665;-64
2023/10/22 05:15:04;;;;;;;1.87;1.67;;;12.20;99.90;12.20;99665.00;;;;4941552;28;81968;-66
2023/10/22 05:17:30;;;;;;;1.67;1.33;;;12.20;99.90;12.20;99653.00;;;;4935012;28;83100;-66
2023/10/22 05:19:55;;;;;;;1.40;1.30;;;12.20;99.90;12.10;99669.00;;;;4917536;28;84307;-66
2023/10/22 05:22:21;;;;;;;2.47;1.83;;;12.20;99.90;12.10;99668.00;;;;4935896;28;83347;-66
2023/10/22 05:24:48;;;;;;;1.57;1.47;;;12.20;99.90;12.20;99674.00;;;;4940697;28;82519;-66
2023/10/22 05:27:15;;;;;;;2.00;1.30;;;12.20;99.90;12.20;99669.00;;;;4936057;28;84331;-67
2023/10/22 05:29:47;;;;;;;1.43;1.33;;;12.20;99.90;12.10;99668.00;;;;4934326;28;83326;-66
2023/10/22 05:32:14;;;;;;;2.07;1.40;;;12.20;99.90;12.10;99671.00;;;;4930267;28;82756;-66
2023/10/22 05:34:42;;;;;;;2.03;1.40;;;13.00;99.90;12.20;99662.00;;;;4922068;28;82833;-66
2023/10/22 05:37:08;;;;;;;1.67;1.00;;;12.20;99.90;12.10;99662.00;;;;4938156;28;84122;-66
2023/10/22 05:39:36;;;;;;;2.37;1.40;;;12.10;99.90;12.10;99671.00;;;;4936357;28;98941;-67
2023/10/22 05:42:05;;;;;;;1.53;1.43;;;12.10;99.90;12.10;99673.00;;;;4926081;28;83129;-67
2023/10/22 05:44:30;;;;;;;1.50;1.40;;;12.10;99.90;12.10;99667.00;;;;4937170;28;100197;-65
2023/10/22 05:46:56;;;;;;;1.40;1.30;;;12.10;99.90;12.10;99668.00;;;;4940053;28;113496;-66
2023/10/22 05:49:21;;;;;;;1.17;1.07;;;12.10;99.90;12.10;99668.00;;;;4933448;28;113565;-66
2023/10/22 05:51:48;;;;;;;2.23;1.13;;;12.10;99.90;12.10;99674.00;;;;4936651;28;109922;-65
2023/10/22 05:54:13;;;;;;;1.47;1.33;;;12.10;99.90;12.10;99677.00;;;;4919516;28;82800;-67
2023/10/22 05:56:39;;;;;;;1.63;1.27;;;12.10;99.90;12.00;99677.00;;;;4922409;28;86080;-67
2023/10/22 05:59:08;;;;;;;1.30;1.20;;;12.00;99.90;12.00;99682.00;;;;4938921;28;101863;-67
2023/10/22 06:01:38;;;;;;;1.53;1.07;;;12.00;99.90;12.00;99688.00;;;;4928002;28;83147;-68
2023/10/22 06:04:13;;;;;;;2.27;1.40;;;12.00;99.90;12.00;99698.00;;;;4923501;28;81989;-68
2023/10/22 06:06:39;;;;;;;1.47;0.87;;;12.00;99.90;12.00;99691.00;;;;4934436;28;111578;-67
2023/10/22 06:09:05;;;;;;;0.60;0.60;;;12.00;99.90;12.00;99697.00;;;;4937697;28;89802;-68
2023/10/22 06:11:30;;;;;;;3.03;1.47;;;12.00;99.90;12.00;99700.00;;;;4934369;28;89083;-67
2023/10/22 06:13:56;;;;;;;1.27;1.03;;;12.00;99.90;12.00;99698.00;;;;4916831;28;109021;-67
2023/10/22 06:16:23;;;;;;;4.50;1.13;;;12.00;99.90;12.00;99694.00;;;;4936401;28;83686;-67
2023/10/22 06:18:49;;;;;;;0.80;0.80;;;12.00;99.90;12.00;99691.00;;;;4919577;28;85117;-65
2023/10/22 06:21:15;;;;;;;0.90;0.90;;;12.00;99.90;12.00;99694.00;;;;4937911;28;82609;-67
2023/10/22 06:23:42;;;;;;;0.80;0.60;;;12.00;99.90;12.00;99692.00;;;;4931147;28;82924;-66
2023/10/22 06:26:14;;;;;;;3.63;1.40;;;12.00;99.90;12.00;99702.00;;;;4931574;28;88866;-66
2023/10/22 06:28:40;;;;;;;1.77;1.33;;;12.00;99.90;12.00;99704.00;;;;4933427;28;88017;-66
2023/10/22 06:31:12;;;;;;;1.17;1.07;;;12.00;99.90;12.00;99711.00;;;;4928395;28;87788;-67
2023/10/22 06:33:39;;;;;;;0.97;0.97;;;12.00;99.90;12.10;99713.00;;;;4926866;28;88441;-66
2023/10/22 06:36:23;;;;;;;0.97;0.87;;;12.00;99.90;12.10;99728.00;;;;4928983;28;89316;-65
2023/10/22 06:38:50;;;;;;;1.20;1.20;;;12.10;99.90;12.10;99737.00;;;;4931227;28;88781;-66
2023/10/22 06:41:17;;;;;;;2.60;1.13;;;12.10;99.90;12.10;99734.00;;;;4937416;28;89131;-65
2023/10/22 06:43:44;;;;;;;1.27;1.17;;;12.10;99.90;12.10;99727.00;;;;4927754;28;94839;-66
2023/10/22 06:46:10;;;;;;;1.20;1.10;;;12.10;99.90;12.10;99732.00;;;;4934171;28;90364;-66
2023/10/22 06:48:36;;;;;;;1.27;1.17;;;12.10;99.90;12.10;99733.00;;;;4932459;28;87969;-66
2023/10/22 06:51:03;;;;;;;0.67;0.67;;;12.10;99.90;12.10;99729.00;;;;4930536;28;88332;-66
2023/10/22 06:53:30;;;;;;;1.10;1.00;;;12.10;99.90;12.10;99730.00;;;;4932312;28;87078;-66
2023/10/22 06:55:56;;;;;;;1.43;1.07;;;12.10;99.90;12.10;99747.00;;;;4898367;28;89839;-66
2023/10/22 06:58:21;;;;;;;1.30;1.20;;;12.10;99.90;12.20;99734.00;;;;4932218;28;113158;-66
2023/10/22 07:00:51;;;;;;;1.30;1.20;;;12.20;99.90;12.20;99739.00;;;;4930843;28;103970;-66
2023/10/22 07:03:20;;;;;;;1.30;1.20;;;12.20;99.90;12.20;99738.00;;;;4931123;28;88066;-66
2023/10/22 07:05:49;;;;;;;1.73;1.13;;;12.20;99.90;12.20;99734.00;;;;4936246;28;115753;-66
2023/10/22 07:08:16;;;;;;;1.60;1.50;;;12.20;99.90;12.20;99731.00;;;;4934113;28;88958;-66
2023/10/22 07:10:42;;;;;;;1.10;0.93;;;12.20;99.90;12.20;99733.00;;;;4913058;28;87805;-67
2023/10/22 07:13:07;;;;;;;2.07;1.40;;;12.20;99.90;12.20;99732.00;;;;4934472;28;87983;-67
2023/10/22 07:15:33;;;;;;;1.33;1.23;;;12.20;99.90;12.20;99737.00;;;;4897457;28;118530;-67
2023/10/22 07:17:59;;;;;;;1.30;1.20;;;12.20;99.90;12.20;99743.00;;;;4932949;28;117105;-67
2023/10/22 07:20:25;;;;;;;3.30;1.17;;;12.20;99.90;12.20;99737.00;;;;4935020;28;92241;-68
2023/10/22 07:22:51;;;;;;;2.20;1.43;;;12.20;99.90;12.20;99729.00;;;;4929515;28;87947;-66
2023/10/22 07:25:16;;;;;;;2.17;1.27;;;12.20;99.90;12.20;99731.00;;;;4935613;28;118521;-66
2023/10/22 07:27:42;;;;;;;3.60;2.23;;;12.20;99.90;12.20;99738.00;;;;4935217;28;88202;-66
2023/10/22 07:30:09;;;;;;;1.70;1.40;;;12.20;99.90;12.20;99736.00;;;;4932963;28;109561;-66
2023/10/22 07:32:34;;;;;;;3.10;1.97;;;12.20;99.90;12.20;99734.00;;;;4932576;28;92242;-66
2023/10/22 07:35:00;;;;;;;3.07;2.00;;;12.20;99.90;12.20;99734.00;;;;4932666;28;118268;-66
2023/10/22 07:37:25;;;;;;;1.20;1.10;;;12.20;99.90;12.20;99739.00;;;;4931010;28;117807;-66
2023/10/22 07:39:51;;;;;;;1.33;1.20;;;12.20;99.90;12.20;99734.00;;;;4933721;28;109511;-66
2023/10/22 07:42:20;;;;;;;1.87;1.53;;;12.20;99.90;12.20;99738.00;;;;4901591;28;108083;-66
2023/10/22 07:44:50;;;;;;;2.77;1.03;;;12.20;99.90;12.20;99740.00;;;;4915932;28;118167;-66
2023/10/22 07:47:15;;;;;;;1.13;1.00;;;12.70;99.90;12.20;99740.00;;;;4915176;28;111746;-65
2023/10/22 07:49:41;;;;;;;1.70;1.20;;;12.20;99.90;12.30;99756.00;;;;4932960;28;110022;-65
2023/10/22 07:52:09;;;;;;;1.60;1.50;;;12.30;99.90;12.30;99757.00;;;;4930193;28;108996;-66
2023/10/22 07:54:35;;;;;;;2.53;1.00;;;12.30;99.90;12.30;99756.00;;;;4929709;28;118078;-66
2023/10/22 07:57:01;;;;;;;1.57;0.80;;;12.30;99.90;12.30;99760.00;;;;4931928;28;116901;-66
2023/10/22 07:59:27;;;;;;;1.27;1.17;;;12.30;99.90;12.30;99767.00;;;;4929265;28;87597;-66
2023/10/22 08:01:52;;;;;;;1.23;0.90;;;12.30;99.90;12.30;99771.00;;;;4931668;28;104430;-66
2023/10/22 08:04:18;;;;;;;1.90;1.07;;;12.30;99.90;12.40;99763.00;;;;4934924;28;88626;-66
2023/10/22 08:06:44;;;;;;;1.00;0.90;;;12.40;99.90;12.40;99764.00;;;;4936523;28;116686;-66
2023/10/22 08:09:09;;;;;;;0.90;0.80;;;12.40;99.90;12.40;99764.00;;;;4916745;28;111227;-65
2023/10/22 08:11:35;;;;;;;2.90;1.33;;;12.40;99.90;12.40;99759.00;;;;4934169;28;88245;-66
2023/10/22 08:14:01;;;;;;;9.43;5.27;;;12.50;99.90;12.50;99764.00;;;;4930732;28;116577;-66
2023/10/22 08:16:32;;;;;;;1.37;1.23;;;12.50;99.90;12.60;99766.00;;;;4915958;28;118270;-66
2023/10/22 08:18:58;;;;;;;1.23;0.90;;;12.50;99.90;12.60;99767.00;;;;4933993;28;110938;-66
2023/10/22 08:21:24;;;;;;;1.43;1.13;;;12.60;99.90;12.60;99774.00;;;;4934447;28;108725;-66
2023/10/22 08:23:49;;;;;;;1.17;0.70;;;12.60;99.90;12.70;99776.00;;;;4934134;28;92024;-66
2023/10/22 08:26:15;;;;;;;1.87;1.53;;;12.70;99.90;12.80;99774.00;;;;4929091;28;88301;-66
2023/10/22 08:28:41;;;;;;;1.37;1.27;;;12.70;99.90;12.80;99770.00;;;;4930859;28;110104;-66
2023/10/22 08:31:10;;;;;;;0.70;0.70;;;12.80;99.90;12.90;99755.00;;;;4927677;28;106909;-66
2023/10/22 08:33:35;;;;;;;1.17;1.07;;;12.90;99.90;12.90;99756.00;;;;4934480;28;116637;-66
2023/10/22 08:36:07;;;;;;;2.20;1.23;;;12.90;99.90;13.00;99757.00;;;;4928801;28;101185;-67
2023/10/22 08:38:32;;;;;;;0.67;0.63;;;13.00;99.90;13.10;99750.00;;;;4915795;28;88795;-67
2023/10/22 08:41:00;;;;;;;1.63;1.13;;;13.00;99.90;13.10;99747.00;;;;4928279;28;87967;-67
2023/10/22 08:43:32;;;;;;;0.80;0.80;;;13.10;99.90;13.10;99754.00;;;;4927397;28;88762;-67
2023/10/22 08:45:58;;;;;;;0.90;0.50;;;13.40;99.90;13.20;99766.00;;;;4917829;28;88558;-67
2023/10/22 08:48:25;;;;;;;1.40;0.80;;;13.20;99.90;13.30;99763.00;;;;4929888;28;103938;-67
2023/10/22 08:51:01;;;;;;;1.33;0.83;;;13.20;99.90;13.30;99754.00;;;;4928889;28;88095;-67
2023/10/22 08:53:27;;;;;;;0.50;0.50;;;13.30;99.90;13.30;99755.00;;;;4913571;28;118454;-67
2023/10/22 08:55:56;;;;;;;2.00;0.80;;;13.30;99.90;13.40;99760.00;;;;4913571;28;87443;-67
2023/10/22 08:58:22;;;;;;;0.97;0.70;;;13.40;99.90;13.40;99754.00;;;;4932696;28;87795;-68
2023/10/22 09:00:49;;;;;;;0.60;0.50;;;13.40;99.90;13.50;99764.00;;;;4929056;28;107955;-67
2023/10/22 09:03:20;;;;;;;1.30;1.20;;;13.40;99.90;13.50;99760.00;;;;4926592;28;88687;-67
2023/10/22 09:05:48;;;;;;;1.83;0.97;;;13.50;99.90;13.60;99762.00;;;;4928992;28;108253;-68
2023/10/22 09:08:14;;;;;;;1.33;0.70;;;13.60;99.90;13.70;99761.00;;;;4929011;28;87924;-68
2023/10/22 09:10:41;;;;;;;0.93;0.93;;;13.60;99.90;13.70;99762.00;;;;4917576;28;90261;-68
2023/10/22 09:13:06;;;;;;;0.37;0.30;;;13.70;99.90;13.80;99762.00;;;;4931190;28;90027;-68
2023/10/22 09:15:45;;;;;;;0.60;0.60;;;13.80;99.90;13.90;99778.00;;;;4929307;28;109392;-68
2023/10/22 09:18:15;;;;;;;0.90;0.90;;;13.90;99.90;14.00;99771.00;;;;4909928;28;88773;-69
2023/10/22 09:20:43;;;;;;;1.67;0.97;;;13.90;99.90;14.10;99778.00;;;;4931000;28;87166;-68
2023/10/22 09:23:23;;;;;;;0.80;0.70;;;14.00;99.90;14.10;99773.00;;;;4929082;28;87908;-67
2023/10/22 09:25:58;;;;;;;0.70;0.68;;;14.10;99.90;14.20;99775.00;;;;4926954;28;110722;-69
2023/10/22 09:28:26;;;;;;;1.88;0.90;;;14.10;99.90;14.30;99775.00;;;;4928410;28;89358;-69
2023/10/22 09:31:02;;;;;;;0.70;0.70;;;14.20;99.90;14.40;99781.00;;;;4912656;28;87906;-69
2023/10/22 09:33:34;;;;;;;0.80;0.80;;;14.30;99.90;14.50;99770.00;;;;4933450;28;89426;-69
2023/10/22 09:36:11;;;;;;;1.27;1.02;;;14.40;99.90;14.60;99768.00;;;;4925551;28;87872;-69
2023/10/22 09:38:48;;;;;;;3.35;0.85;;;14.50;99.90;14.70;99781.00;;;;4903836;28;88165;-68
2023/10/22 09:41:25;;;;;;;0.80;0.80;;;14.60;99.90;14.90;99764.00;;;;4934423;28;87602;-67
2023/10/22 09:43:55;;;;;;;1.17;0.90;;;14.80;99.90;15.20;99779.00;;;;4932519;28;88485;-66
2023/10/22 09:46:21;;;;;;;0.80;0.70;;;15.00;99.90;15.60;99779.00;;;;4927785;28;87076;-67
2023/10/22 09:48:48;;;;;;;0.50;0.47;;;15.40;99.90;16.00;99770.00;;;;4914072;28;87841;-66
2023/10/22 09:51:17;;;;;;;1.02;0.80;;;15.80;99.90;16.40;99773.00;;;;4926462;28;87762;-66
2023/10/22 09:53:53;;;;;;;1.58;1.02;;;16.20;99.90;16.70;99771.00;;;;4928732;28;96031;-66
2023/10/22 09:56:26;;;;;;;1.13;0.60;;;16.50;99.90;16.80;99765.00;;;;4933407;28;88985;-70
2023/10/22 09:59:08;;;;;;;4.18;0.73;;;16.70;99.90;17.10;99767.00;;;;4921229;28;95390;-70
2023/10/22 10:01:42;;;;;;;0.88;0.57;;;16.90;99.90;17.30;99772.00;;;;4929903;28;88100;-70
2023/10/22 10:04:07;;;;;;;0.40;0.30;;;17.20;99.90;17.30;99761.00;;;;4930305;28;104474;-71
2023/10/22 10:06:36;;;;;;;2.75;1.25;;;17.30;99.90;17.40;99769.00;;;;4926858;28;118229;-70
2023/10/22 10:09:03;;;;;;;0.68;0.65;;;17.30;99.90;17.40;99772.00;;;;4935446;28;87714;-68
2023/10/22 10:11:31;;;;;;;1.05;0.40;;;17.30;99.90;17.30;99778.00;;;;4929111;28;87157;-68
2023/10/22 10:13:58;;;;;;;0.47;0.47;;;17.30;99.90;17.40;99788.00;;;;4909536;28;94831;-67
2023/10/22 10:16:24;;;;;;;0.70;0.50;;;17.30;99.90;17.40;99778.00;;;;4928610;28;87633;-70
2023/10/22 10:19:02;;;;;;;1.77;0.50;;;17.30;99.90;17.60;99782.00;;;;4912572;28;89072;-68
2023/10/22 10:21:34;;;;;;;0.30;0.30;;;17.50;99.90;17.90;99786.00;;;;4930482;28;87546;-68
2023/10/22 10:24:17;;;;;;;0.40;0.40;;;17.80;99.90;18.20;99778.00;;;;4928283;28;87620;-67
2023/10/22 10:26:43;;;;;;;0.63;0.40;;;18.00;99.90;18.40;99778.00;;;;4897365;28;88242;-68
2023/10/22 10:29:15;;;;;;;0.57;0.50;;;18.20;99.90;18.60;99773.00;;;;4923596;28;87765;-67
2023/10/22 10:31:47;;;;;;;1.50;0.60;;;18.40;99.90;18.70;99761.00;;;;4931151;28;87771;-67
2023/10/22 10:34:34;;;;;;;0.75;0.32;;;18.60;99.90;18.60;99773.00;;;;4930102;28;88869;-66
2023/10/22 10:37:20;;;;;;;1.20;0.35;;;18.60;99.90;18.60;99764.00;;;;4925551;28;87729;-66
2023/10/22 10:39:51;;;;;;;0.50;0.22;;;18.60;99.90;18.50;99761.00;;;;4933429;28;87349;-65
2023/10/22 10:42:28;;;;;;;1.33;0.88;;;18.50;99.90;18.60;99762.00;;;;4920378;28;87841;-67
2023/10/22 10:44:54;;;;;;;0.32;0.32;;;18.50;99.90;18.70;99768.00;;;;4914802;28;115504;-65
2023/10/22 10:47:25;;;;;;;1.58;0.47;;;18.60;99.90;18.90;99772.00;;;;4926828;28;88771;-68
2023/10/22 10:50:11;;;;;;;1.20;0.55;;;18.70;99.90;19.10;99771.00;;;;4933170;28;87602;-66
2023/10/22 10:52:49;;;;;;;1.38;0.50;;;18.90;99.90;19.40;99767.00;;;;4930178;28;87835;-67
2023/10/22 10:55:14;;;;;;;2.55;0.55;;;19.10;99.90;19.60;99765.00;;;;4927436;28;122845;-66